createdAt,value
2023-05-15T00:02:24.259Z,16.74
2023-05-15T00:04:53.384Z,16.85
2023-05-15T00:07:21.219Z,16.99
2023-05-15T00:09:48.937Z,16.91
2023-05-15T00:12:16.661Z,17.10
2023-05-15T00:14:44.426Z,16.98
2023-05-15T00:17:12.536Z,16.85
2023-05-15T00:19:40.316Z,16.85
2023-05-15T00:22:09.523Z,16.44
2023-05-15T00:24:37.286Z,16.43
2023-05-15T00:27:05.497Z,16.54
2023-05-15T00:29:33.230Z,16.83
2023-05-15T00:32:00.936Z,16.70
2023-05-15T00:34:28.651Z,16.99
2023-05-15T00:36:56.389Z,16.55
2023-05-15T00:39:25.440Z,16.35
2023-05-15T00:41:53.344Z,16.71
2023-05-15T00:44:22.566Z,16.83
2023-05-15T00:46:51.162Z,16.54
2023-05-15T00:49:19.767Z,16.66
2023-05-15T00:51:47.582Z,16.63
2023-05-15T00:54:16.244Z,16.36
2023-05-15T00:56:46.933Z,16.36
2023-05-15T00:59:14.847Z,16.31
2023-05-15T01:01:45.189Z,16.39
2023-05-15T01:04:13.224Z,16.15
2023-05-15T01:06:40.996Z,16.09
2023-05-15T01:09:09.748Z,16.12
2023-05-15T01:11:39.335Z,16.28
2023-05-15T01:14:09.611Z,16.04
2023-05-15T01:16:37.804Z,16.31
2023-05-15T01:19:06.207Z,15.96
2023-05-15T01:22:11.755Z,16.65
2023-05-15T01:24:59.552Z,16.65
2023-05-15T01:27:34.210Z,16.77
2023-05-15T01:30:08.970Z,16.49
2023-05-15T01:32:44.427Z,16.44
2023-05-15T01:35:17.356Z,15.98
2023-05-15T01:37:50.316Z,15.51
2023-05-15T01:40:20.109Z,15.77
2023-05-15T01:42:55.276Z,15.96
2023-05-15T01:45:26.040Z,15.91
2023-05-15T01:47:56.920Z,16.03
2023-05-15T01:50:26.067Z,16.16
2023-05-15T01:52:59.430Z,16.08
2023-05-15T01:55:28.943Z,16.31
2023-05-15T01:58:01.542Z,16.12
2023-05-15T02:00:30.396Z,16.08
2023-05-15T02:02:59.798Z,16.04
2023-05-15T02:05:28.183Z,15.98
2023-05-15T02:07:56.377Z,15.78
2023-05-15T02:10:24.738Z,15.64
2023-05-15T02:12:53.982Z,15.90
2023-05-15T02:15:24.485Z,15.82
2023-05-15T02:17:52.434Z,16.11
2023-05-15T02:20:20.245Z,16.03
2023-05-15T02:22:47.947Z,15.86
2023-05-15T02:25:16.042Z,15.75
2023-05-15T02:27:49.262Z,16.01
2023-05-15T02:30:33.256Z,16.15
2023-05-15T02:33:12.226Z,16.10
2023-05-15T02:35:52.209Z,15.99
2023-05-15T02:38:26.266Z,15.46
2023-05-15T02:40:56.486Z,16.01
2023-05-15T02:43:25.978Z,15.79
2023-05-15T02:45:57.253Z,15.89
2023-05-15T02:48:26.271Z,16.04
2023-05-15T02:50:54.418Z,15.70
2023-05-15T02:53:22.244Z,15.75
2023-05-15T02:55:50.036Z,15.57
2023-05-15T02:58:17.888Z,15.85
2023-05-15T03:00:45.613Z,15.80
2023-05-15T03:03:14.705Z,15.69
2023-05-15T03:05:42.636Z,15.91
2023-05-15T03:08:10.457Z,15.54
2023-05-15T03:10:38.218Z,15.88
2023-05-15T03:13:06.340Z,15.84
2023-05-15T03:15:34.100Z,15.75
2023-05-15T03:18:01.849Z,15.58
2023-05-15T03:20:30.995Z,15.52
2023-05-15T03:22:58.734Z,15.47
2023-05-15T03:25:27.005Z,15.38
2023-05-15T03:27:55.066Z,15.23
2023-05-15T03:30:22.810Z,14.86
2023-05-15T03:32:50.997Z,15.03
2023-05-15T03:35:18.885Z,15.37
2023-05-15T03:37:47.983Z,15.51
2023-05-15T03:40:15.794Z,15.62
2023-05-15T03:42:43.526Z,15.59
2023-05-15T03:45:11.350Z,15.82
2023-05-15T03:47:39.139Z,15.73
2023-05-15T03:50:07.908Z,15.75
2023-05-15T03:52:35.827Z,15.83
2023-05-15T03:55:06.067Z,15.80
2023-05-15T03:57:35.552Z,15.74
2023-05-15T04:00:07.463Z,15.98
2023-05-15T04:02:35.264Z,15.62
2023-05-15T04:05:03.520Z,15.92
2023-05-15T04:07:31.297Z,16.02
2023-05-15T04:10:01.419Z,15.94
2023-05-15T04:12:30.731Z,16.20
2023-05-15T04:15:13.953Z,16.38
2023-05-15T04:17:41.732Z,16.27
2023-05-15T04:20:11.098Z,16.23
2023-05-15T04:22:38.980Z,16.24
2023-05-15T04:25:07.978Z,16.39
2023-05-15T04:27:37.312Z,16.52
2023-05-15T04:30:05.890Z,15.86
2023-05-15T04:32:33.915Z,15.97
2023-05-15T04:35:01.730Z,16.02
2023-05-15T04:37:29.577Z,16.32
2023-05-15T04:39:57.260Z,15.93
2023-05-15T04:42:25.338Z,16.08
2023-05-15T04:44:54.501Z,15.83
2023-05-15T04:47:22.400Z,15.93
2023-05-15T04:49:50.243Z,16.49
2023-05-15T04:52:18.297Z,16.73
2023-05-15T04:54:46.129Z,16.78
2023-05-15T04:57:13.849Z,16.14
2023-05-15T04:59:41.558Z,16.48
2023-05-15T05:02:11.615Z,16.14
2023-05-15T05:04:39.332Z,16.45
2023-05-15T05:07:07.051Z,16.30
2023-05-15T05:09:35.588Z,16.30
2023-05-15T05:12:03.403Z,16.39
2023-05-15T05:14:31.556Z,16.55
2023-05-15T05:16:59.302Z,16.71
2023-05-15T05:19:29.100Z,17.04
2023-05-15T05:21:58.406Z,16.39
2023-05-15T05:24:26.248Z,16.68
2023-05-15T05:26:54.580Z,16.75
2023-05-15T05:29:22.278Z,16.68
2023-05-15T05:31:50.214Z,16.69
2023-05-15T05:34:18.074Z,17.02
2023-05-15T05:36:47.141Z,17.24
2023-05-15T05:39:15.439Z,16.70
2023-05-15T05:41:43.146Z,16.72
2023-05-15T05:44:10.906Z,15.81
2023-05-15T05:46:38.733Z,16.36
2023-05-15T05:49:06.503Z,16.50
2023-05-15T05:51:36.630Z,16.63
2023-05-15T05:54:05.946Z,17.33
2023-05-15T05:56:33.667Z,17.25
2023-05-15T05:59:02.035Z,17.26
2023-05-15T06:01:30.607Z,17.84
2023-05-15T06:03:58.646Z,18.10
2023-05-15T06:06:26.725Z,18.36
2023-05-15T06:08:56.509Z,18.91
2023-05-15T06:11:25.916Z,19.06
2023-05-15T06:13:53.709Z,18.24
2023-05-15T06:16:22.777Z,18.59
2023-05-15T06:18:51.105Z,18.93
2023-05-15T06:21:18.902Z,18.40
2023-05-15T06:23:46.615Z,18.61
2023-05-15T06:26:14.513Z,18.74
2023-05-15T06:28:43.596Z,18.79
2023-05-15T06:31:11.479Z,18.64
2023-05-15T06:33:39.154Z,18.91
2023-05-15T06:36:07.322Z,19.23
2023-05-15T06:38:35.063Z,19.11
2023-05-15T06:41:02.864Z,19.32
2023-05-15T06:43:30.564Z,19.03
2023-05-15T06:45:59.633Z,19.95
2023-05-15T06:48:27.338Z,20.19
2023-05-15T06:50:55.567Z,19.08
2023-05-15T06:53:23.294Z,18.95
2023-05-15T06:55:51.044Z,20.16
2023-05-15T06:58:18.956Z,19.42
2023-05-15T07:00:46.720Z,19.82
2023-05-15T07:03:16.784Z,19.72
2023-05-15T07:05:44.556Z,19.29
2023-05-15T07:08:12.251Z,19.30
2023-05-15T07:10:40.012Z,19.30
2023-05-15T07:13:07.740Z,19.68
2023-05-15T07:15:35.487Z,20.30
2023-05-15T07:18:03.421Z,20.21
2023-05-15T07:20:34.983Z,19.92
2023-05-15T07:23:03.062Z,20.14
2023-05-15T07:25:31.115Z,19.31
2023-05-15T07:27:58.821Z,20.06
2023-05-15T07:30:26.983Z,20.68
2023-05-15T07:32:55.108Z,20.83
2023-05-15T07:35:23.261Z,19.26
2023-05-15T07:37:52.585Z,19.62
2023-05-15T07:40:20.321Z,20.03
2023-05-15T07:42:48.124Z,19.80
2023-05-15T07:45:16.236Z,19.86
2023-05-15T07:47:46.823Z,19.91
2023-05-15T07:50:14.776Z,20.25
2023-05-15T07:52:43.105Z,19.94
2023-05-15T07:55:12.825Z,19.99
2023-05-15T07:57:40.888Z,20.21
2023-05-15T08:00:13.371Z,20.28
2023-05-15T08:02:42.617Z,19.35
2023-05-15T08:05:10.790Z,20.13
2023-05-15T08:07:38.651Z,20.85
2023-05-15T08:10:07.546Z,20.55
2023-05-15T08:12:36.638Z,20.24
2023-05-15T08:15:04.992Z,21.01
2023-05-15T08:17:32.823Z,20.98
2023-05-15T08:20:00.588Z,20.25
2023-05-15T08:22:30.332Z,20.89
2023-05-15T08:24:58.143Z,20.79
2023-05-15T08:27:25.859Z,21.61
2023-05-15T08:29:55.164Z,21.00
2023-05-15T08:32:23.017Z,21.68
2023-05-15T08:34:50.738Z,20.78
2023-05-15T08:37:18.542Z,20.41
2023-05-15T08:39:46.243Z,21.28
2023-05-15T08:42:21.247Z,21.33
2023-05-15T08:44:49.417Z,21.53
2023-05-15T08:47:20.582Z,21.45
2023-05-15T08:49:55.484Z,22.19
2023-05-15T08:52:23.687Z,22.01
2023-05-15T08:54:51.741Z,21.82
2023-05-15T08:57:20.003Z,22.08
2023-05-15T08:59:47.989Z,22.35
2023-05-15T09:02:18.184Z,21.49
2023-05-15T09:04:45.880Z,22.49
2023-05-15T09:07:13.689Z,21.60
2023-05-15T09:09:43.441Z,21.62
2023-05-15T09:12:12.359Z,22.29
2023-05-15T09:14:40.215Z,21.62
2023-05-15T09:17:08.561Z,21.67
2023-05-15T09:19:39.988Z,22.27
2023-05-15T09:22:18.205Z,22.12
2023-05-15T09:24:48.122Z,22.58
2023-05-15T09:27:16.141Z,22.99
2023-05-15T09:29:43.924Z,22.87
2023-05-15T09:32:13.016Z,22.95
2023-05-15T09:34:43.505Z,23.17
2023-05-15T09:37:13.770Z,21.98
2023-05-15T09:39:43.467Z,22.53
2023-05-15T09:42:12.898Z,22.06
2023-05-15T09:44:43.783Z,22.75
2023-05-15T09:47:12.200Z,21.66
2023-05-15T09:49:40.129Z,21.67
2023-05-15T09:52:11.082Z,22.18
2023-05-15T09:54:39.419Z,22.21
2023-05-15T09:57:11.515Z,21.77
2023-05-15T09:59:44.805Z,21.50
2023-05-15T10:02:15.408Z,22.29
2023-05-15T10:04:43.163Z,21.95
2023-05-15T10:07:13.006Z,22.47
2023-05-15T10:09:41.199Z,22.55
2023-05-15T10:12:10.406Z,22.05
2023-05-15T10:14:38.394Z,22.53
2023-05-15T10:17:06.292Z,23.71
2023-05-15T10:19:35.875Z,23.08
2023-05-15T10:22:06.334Z,23.94
2023-05-15T10:24:36.912Z,24.39
2023-05-15T10:27:06.197Z,24.31
2023-05-15T10:29:34.912Z,23.85
2023-05-15T10:32:03.183Z,23.78
2023-05-15T10:34:31.872Z,23.73
2023-05-15T10:37:00.577Z,23.31
2023-05-15T10:39:30.012Z,22.12
2023-05-15T10:42:00.772Z,22.74
2023-05-15T10:44:28.454Z,23.68
2023-05-15T10:46:56.894Z,24.18
2023-05-15T10:49:24.726Z,24.27
2023-05-15T10:51:53.845Z,25.11
2023-05-15T10:54:23.103Z,24.32
2023-05-15T10:56:52.271Z,24.06
2023-05-15T10:59:21.647Z,23.39
2023-05-15T11:01:49.386Z,23.41
2023-05-15T11:04:19.285Z,21.26
2023-05-15T11:06:49.474Z,22.06
2023-05-15T11:09:36.485Z,21.72
2023-05-15T11:12:05.491Z,22.42
2023-05-15T11:14:37.359Z,21.54
2023-05-15T11:17:07.554Z,21.37
2023-05-15T11:19:58.727Z,23.80
2023-05-15T11:22:32.497Z,24.28
2023-05-15T11:25:02.175Z,23.63
2023-05-15T11:27:32.100Z,25.05
2023-05-15T11:30:12.018Z,24.15
2023-05-15T11:33:00.815Z,23.89
2023-05-15T11:35:30.761Z,24.46
2023-05-15T11:37:59.927Z,24.27
2023-05-15T11:40:29.618Z,24.66
2023-05-15T11:43:08.810Z,24.29
2023-05-15T11:45:39.659Z,24.78
2023-05-15T11:48:08.987Z,25.02
2023-05-15T11:50:36.816Z,25.51
2023-05-15T11:53:06.408Z,24.26
2023-05-15T11:55:35.580Z,24.04
2023-05-15T11:58:04.292Z,26.02
2023-05-15T12:00:32.797Z,24.86
2023-05-15T12:03:04.682Z,24.25
2023-05-15T12:05:32.572Z,24.04
2023-05-15T12:08:02.008Z,24.58
2023-05-15T12:10:31.375Z,24.30
2023-05-15T12:12:59.994Z,25.30
2023-05-15T12:15:28.066Z,24.39
2023-05-15T12:17:55.798Z,24.13
2023-05-15T12:20:25.185Z,24.58
2023-05-15T12:22:53.113Z,22.44
2023-05-15T12:25:21.047Z,25.37
2023-05-15T12:27:48.979Z,23.62
2023-05-15T12:30:16.856Z,22.87
2023-05-15T12:32:44.966Z,23.51
2023-05-15T12:35:12.953Z,23.53
2023-05-15T12:37:42.839Z,22.62
2023-05-15T12:40:12.038Z,22.99
2023-05-15T12:42:41.525Z,22.69
2023-05-15T12:45:16.350Z,21.86
2023-05-15T12:47:45.737Z,22.64
2023-05-15T12:50:17.205Z,22.05
2023-05-15T12:52:51.977Z,23.61
2023-05-15T12:55:23.966Z,23.77
2023-05-15T12:57:51.963Z,23.93
2023-05-15T13:00:21.537Z,24.89
2023-05-15T13:02:51.306Z,23.67
2023-05-15T13:05:19.289Z,25.13
2023-05-15T13:07:46.975Z,23.47
2023-05-15T13:10:16.519Z,24.83
2023-05-15T13:12:45.967Z,23.39
2023-05-15T13:15:26.225Z,22.65
2023-05-15T13:17:56.848Z,22.35
2023-05-15T13:20:25.427Z,21.94
2023-05-15T13:22:53.404Z,21.83
2023-05-15T13:25:23.168Z,22.31
2023-05-15T13:27:51.654Z,23.25
2023-05-15T13:30:20.435Z,21.80
2023-05-15T13:32:48.196Z,23.15
2023-05-15T13:35:16.534Z,22.57
2023-05-15T13:37:44.802Z,22.37
2023-05-15T13:40:13.823Z,21.90
2023-05-15T13:42:44.241Z,21.39
2023-05-15T13:45:14.099Z,21.52
2023-05-15T13:47:47.681Z,21.32
2023-05-15T13:50:16.783Z,21.87
2023-05-15T13:52:45.493Z,21.22
2023-05-15T13:55:13.276Z,22.20
2023-05-15T13:57:43.428Z,22.06
2023-05-15T14:00:13.590Z,22.04
2023-05-15T14:02:43.000Z,22.38
2023-05-15T14:05:12.360Z,22.90
2023-05-15T14:07:40.895Z,22.64
2023-05-15T14:10:09.958Z,24.27
2023-05-15T14:12:38.324Z,23.36
2023-05-15T14:15:11.237Z,24.41
2023-05-15T14:17:39.492Z,24.32
2023-05-15T14:20:10.174Z,23.81
2023-05-15T14:22:38.233Z,22.76
2023-05-15T14:25:07.230Z,21.88
2023-05-15T14:27:35.281Z,22.65
2023-05-15T14:30:03.510Z,21.98
2023-05-15T14:32:32.721Z,20.80
2023-05-15T14:35:00.609Z,20.61
2023-05-15T14:37:28.531Z,20.88
2023-05-15T14:39:56.350Z,21.04
2023-05-15T14:42:24.097Z,20.26
2023-05-15T14:44:51.836Z,20.65
2023-05-15T14:47:19.642Z,20.28
2023-05-15T14:49:48.899Z,20.47
2023-05-15T14:52:16.664Z,19.84
2023-05-15T14:54:47.437Z,19.26
2023-05-15T14:57:20.441Z,19.39
2023-05-15T14:59:54.125Z,20.64
2023-05-15T15:02:21.935Z,20.60
2023-05-15T15:04:53.564Z,20.43
2023-05-15T15:07:21.560Z,19.97
2023-05-15T15:09:49.318Z,20.36
2023-05-15T15:12:17.527Z,19.74
2023-05-15T15:14:45.287Z,20.11
2023-05-15T15:17:13.173Z,20.47
2023-05-15T15:19:40.973Z,20.33
2023-05-15T15:22:10.138Z,21.18
2023-05-15T15:24:37.938Z,21.92
2023-05-15T15:27:06.949Z,21.83
2023-05-15T15:29:34.776Z,22.56
2023-05-15T15:32:02.927Z,23.13
2023-05-15T15:34:30.825Z,23.31
2023-05-15T15:36:58.578Z,24.24
2023-05-15T15:39:27.700Z,23.48
2023-05-15T15:41:55.481Z,24.06
2023-05-15T15:44:23.270Z,23.92
2023-05-15T15:46:51.022Z,24.23
2023-05-15T15:49:18.824Z,24.03
2023-05-15T15:51:46.620Z,23.62
2023-05-15T15:54:14.379Z,23.18
2023-05-15T15:56:43.542Z,22.70
2023-05-15T15:59:11.353Z,22.81
2023-05-15T16:01:39.205Z,23.23
2023-05-15T16:04:07.093Z,22.25
2023-05-15T16:06:35.408Z,22.32
2023-05-15T16:09:03.437Z,22.61
2023-05-15T16:11:31.266Z,22.19
2023-05-15T16:14:00.406Z,22.76
2023-05-15T16:16:28.227Z,22.41
2023-05-15T16:18:56.076Z,22.15
2023-05-15T16:21:23.819Z,21.85
2023-05-15T16:23:51.560Z,22.63
2023-05-15T16:26:19.332Z,22.33
2023-05-15T16:28:47.106Z,22.44
2023-05-15T16:31:17.037Z,22.03
2023-05-15T16:33:44.894Z,22.23
2023-05-15T16:36:12.889Z,21.53
2023-05-15T16:38:40.706Z,20.86
2023-05-15T16:41:08.547Z,20.83
2023-05-15T16:43:38.130Z,21.25
2023-05-15T16:46:06.246Z,21.13
2023-05-15T16:48:35.466Z,21.22
2023-05-15T16:51:03.325Z,20.53
2023-05-15T16:53:31.135Z,20.27
2023-05-15T16:55:58.954Z,20.09
2023-05-15T16:58:26.716Z,20.31
2023-05-15T17:00:54.480Z,19.87
2023-05-15T17:03:22.392Z,19.75
2023-05-15T17:05:51.864Z,20.03
2023-05-15T17:08:20.154Z,19.87
2023-05-15T17:10:47.917Z,19.96
2023-05-15T17:13:15.889Z,19.83
2023-05-15T17:15:43.896Z,19.70
2023-05-15T17:18:11.710Z,19.23
2023-05-15T17:20:39.474Z,18.71
2023-05-15T17:23:08.626Z,19.27
2023-05-15T17:25:36.391Z,19.25
2023-05-15T17:28:04.157Z,19.16
2023-05-15T17:30:32.028Z,19.35
2023-05-15T17:33:00.395Z,18.89
2023-05-15T17:35:30.557Z,19.07
2023-05-15T17:37:59.807Z,18.56
2023-05-15T17:40:28.941Z,19.37
2023-05-15T17:42:56.650Z,18.99
2023-05-15T17:45:24.666Z,19.19
2023-05-15T17:47:52.668Z,19.00
2023-05-15T17:50:20.423Z,18.67
2023-05-15T17:52:48.531Z,19.01
2023-05-15T17:55:16.443Z,18.76
2023-05-15T17:57:45.710Z,18.84
2023-05-15T18:00:14.625Z,19.19
2023-05-15T18:02:45.534Z,18.48
2023-05-15T18:05:13.356Z,19.17
2023-05-15T18:07:42.284Z,18.76
2023-05-15T18:10:10.935Z,18.56
2023-05-15T18:12:38.742Z,18.63
2023-05-15T18:15:09.065Z,17.75
2023-05-15T18:17:36.924Z,17.89
2023-05-15T18:20:06.086Z,17.95
2023-05-15T18:22:33.851Z,18.05
2023-05-15T18:25:02.086Z,18.00
2023-05-15T18:27:30.359Z,18.01
2023-05-15T18:29:58.289Z,18.41
2023-05-15T18:32:27.465Z,18.06
2023-05-15T18:34:55.257Z,17.95
2023-05-15T18:37:23.010Z,18.07
2023-05-15T18:39:50.833Z,18.03
2023-05-15T18:42:18.615Z,18.33
2023-05-15T18:44:46.343Z,18.29
2023-05-15T18:47:14.315Z,18.21
2023-05-15T18:49:43.526Z,18.36
2023-05-15T18:52:11.450Z,18.81
2023-05-15T18:54:39.538Z,18.47
2023-05-15T18:57:08.161Z,18.24
2023-05-15T18:59:35.931Z,18.47
2023-05-15T19:02:03.713Z,18.49
2023-05-15T19:04:31.582Z,18.64
2023-05-15T19:07:00.704Z,18.51
2023-05-15T19:09:28.429Z,18.75
2023-05-15T19:11:56.485Z,18.92
2023-05-15T19:14:24.214Z,18.94
2023-05-15T19:16:52.046Z,19.07
2023-05-15T19:19:19.972Z,18.68
2023-05-15T19:21:47.941Z,18.78
2023-05-15T19:24:17.160Z,18.48
2023-05-15T19:26:44.874Z,18.36
2023-05-15T19:29:12.628Z,18.56
2023-05-15T19:31:40.896Z,18.25
2023-05-15T19:34:08.684Z,18.74
2023-05-15T19:36:36.492Z,18.23
2023-05-15T19:39:04.211Z,18.60
2023-05-15T19:41:33.640Z,18.06
2023-05-15T19:44:02.252Z,18.17
2023-05-15T19:46:30.031Z,18.44
2023-05-15T19:48:57.800Z,17.90
2023-05-15T19:51:25.528Z,18.14
2023-05-15T19:53:53.372Z,18.25
2023-05-15T19:56:22.699Z,18.16
2023-05-15T19:58:51.913Z,17.81
2023-05-15T20:01:20.341Z,18.13
2023-05-15T20:03:48.233Z,17.82
2023-05-15T20:06:16.062Z,17.84
2023-05-15T20:08:43.792Z,17.82
2023-05-15T20:11:11.498Z,18.08
2023-05-15T20:13:39.240Z,17.90
2023-05-15T20:16:10.710Z,17.98
2023-05-15T20:18:39.642Z,17.63
2023-05-15T20:21:07.586Z,17.64
2023-05-15T20:23:35.448Z,17.77
2023-05-15T20:26:04.355Z,17.37
2023-05-15T20:28:32.123Z,16.61
2023-05-15T20:31:01.332Z,16.71
2023-05-15T20:33:30.482Z,17.12
2023-05-15T20:35:58.551Z,17.15
2023-05-15T20:38:26.388Z,16.71
2023-05-15T20:40:54.098Z,16.62
2023-05-15T20:43:21.920Z,16.59
2023-05-15T20:45:49.759Z,16.56
2023-05-15T20:48:17.700Z,16.47
2023-05-15T20:50:47.005Z,16.94
2023-05-15T20:53:15.017Z,17.19
2023-05-15T20:55:42.896Z,16.97
2023-05-15T20:58:10.786Z,16.70
2023-05-15T21:00:38.845Z,16.69
2023-05-15T21:03:07.148Z,16.55
2023-05-15T21:05:35.193Z,15.93
2023-05-15T21:08:04.548Z,15.63
2023-05-15T21:10:32.366Z,15.72
2023-05-15T21:13:00.250Z,15.97
2023-05-15T21:15:28.161Z,16.28
2023-05-15T21:17:56.035Z,16.16
2023-05-15T21:20:24.430Z,15.91
2023-05-15T21:22:52.419Z,15.63
2023-05-15T21:25:21.791Z,15.97
2023-05-15T21:27:49.793Z,16.03
2023-05-15T21:30:17.811Z,16.40
2023-05-15T21:32:45.737Z,16.20
2023-05-15T21:35:13.668Z,15.95
2023-05-15T21:37:41.519Z,15.87
2023-05-15T21:40:12.964Z,15.82
2023-05-15T21:42:43.107Z,15.93
2023-05-15T21:45:11.830Z,15.98
2023-05-15T21:47:39.741Z,16.50
2023-05-15T21:50:08.565Z,16.11
2023-05-15T21:52:36.409Z,15.53
2023-05-15T21:55:04.950Z,15.74
2023-05-15T21:57:32.869Z,15.95
2023-05-15T22:00:02.641Z,15.31
2023-05-15T22:02:30.745Z,15.36
2023-05-15T22:04:58.667Z,15.79
2023-05-15T22:07:26.535Z,15.51
2023-05-15T22:09:54.422Z,14.99
2023-05-15T22:12:22.493Z,14.90
2023-05-15T22:14:58.343Z,15.02
2023-05-15T22:17:29.258Z,15.16
2023-05-15T22:20:06.408Z,15.07
2023-05-15T22:22:34.609Z,14.77
2023-05-15T22:25:02.494Z,15.01
2023-05-15T22:27:30.374Z,14.84
2023-05-15T22:29:58.320Z,15.16
2023-05-15T22:32:26.456Z,15.02
2023-05-15T22:34:56.365Z,15.28
2023-05-15T22:37:24.235Z,15.16
2023-05-15T22:39:52.308Z,15.76
2023-05-15T22:42:20.379Z,15.81
2023-05-15T22:44:48.325Z,15.98
2023-05-15T22:47:16.160Z,15.21
2023-05-15T22:49:44.027Z,15.50
2023-05-15T22:52:14.054Z,15.44
2023-05-15T22:54:42.134Z,15.70
2023-05-15T22:57:10.008Z,15.70
2023-05-15T22:59:38.011Z,15.82
2023-05-15T23:02:06.064Z,15.89
2023-05-15T23:04:33.906Z,15.77
2023-05-15T23:07:01.778Z,15.77
2023-05-15T23:09:31.028Z,15.86
2023-05-15T23:12:00.635Z,15.32
2023-05-15T23:14:28.608Z,15.63
2023-05-15T23:16:56.444Z,15.47
2023-05-15T23:19:24.292Z,15.51
2023-05-15T23:21:52.167Z,15.28
2023-05-15T23:24:19.972Z,15.53
2023-05-15T23:26:49.198Z,15.76
2023-05-15T23:29:17.016Z,15.63
2023-05-15T23:31:45.107Z,15.52
2023-05-15T23:34:13.015Z,15.29
2023-05-15T23:36:40.871Z,14.96
2023-05-15T23:39:09.173Z,15.29
2023-05-15T23:41:37.001Z,15.45
2023-05-15T23:44:06.495Z,15.36
2023-05-15T23:46:35.571Z,15.82
2023-05-15T23:49:03.462Z,15.18
2023-05-15T23:51:31.324Z,15.45
2023-05-15T23:53:59.119Z,15.25
2023-05-15T23:56:26.935Z,15.37
2023-05-15T23:58:54.789Z,15.16
